createdAt,value
2022-07-25T00:02:17.355Z,13.50
2022-07-25T00:04:45.668Z,14.03
2022-07-25T00:07:13.960Z,14.27
2022-07-25T00:09:42.191Z,13.57
2022-07-25T00:12:11.257Z,13.80
2022-07-25T00:14:39.786Z,13.50
2022-07-25T00:17:08.355Z,14.33
2022-07-25T00:19:38.279Z,14.20
2022-07-25T00:22:06.652Z,14.63
2022-07-25T00:24:35.305Z,14.27
2022-07-25T00:27:03.966Z,14.77
2022-07-25T00:29:32.269Z,13.90
2022-07-25T00:32:00.591Z,12.90
2022-07-25T00:34:28.915Z,14.60
2022-07-25T00:36:58.593Z,13.40
2022-07-25T00:39:26.809Z,14.57
2022-07-25T00:41:55.047Z,13.80
2022-07-25T00:44:24.752Z,13.73
2022-07-25T00:46:54.378Z,13.40
2022-07-25T00:49:23.291Z,15.10
2022-07-25T00:51:51.889Z,14.63
2022-07-25T00:54:22.147Z,13.93
2022-07-25T00:56:50.993Z,14.20
2022-07-25T00:59:19.367Z,13.73
2022-07-25T01:01:49.201Z,14.73
2022-07-25T01:04:18.551Z,14.30
2022-07-25T01:06:46.869Z,15.17
2022-07-25T01:09:15.178Z,13.47
2022-07-25T01:11:44.962Z,13.73
2022-07-25T01:14:13.267Z,13.33
2022-07-25T01:16:42.159Z,15.07
2022-07-25T01:19:10.431Z,14.10
2022-07-25T01:21:41.173Z,14.70
2022-07-25T01:24:09.969Z,15.67
2022-07-25T01:26:38.276Z,13.33
2022-07-25T01:29:06.827Z,15.03
2022-07-25T01:31:35.162Z,14.90
2022-07-25T01:34:04.095Z,15.00
2022-07-25T01:36:32.646Z,15.10
2022-07-25T01:39:02.353Z,14.93
2022-07-25T01:41:30.626Z,13.73
2022-07-25T01:43:58.994Z,14.37
2022-07-25T01:46:27.295Z,14.30
2022-07-25T01:48:55.699Z,13.83
2022-07-25T01:51:23.995Z,15.00
2022-07-25T01:53:54.757Z,16.03
2022-07-25T01:56:24.278Z,14.77
2022-07-25T01:58:52.502Z,14.07
2022-07-25T02:01:22.054Z,14.93
2022-07-25T02:03:51.340Z,14.53
2022-07-25T02:06:20.973Z,15.00
2022-07-25T02:08:49.430Z,14.80
2022-07-25T02:11:18.309Z,13.20
2022-07-25T02:13:48.170Z,13.97
2022-07-25T02:16:16.357Z,14.10
2022-07-25T02:18:44.744Z,14.67
2022-07-25T02:21:14.094Z,14.47
2022-07-25T02:23:43.767Z,15.13
2022-07-25T02:26:12.628Z,15.30
2022-07-25T02:28:41.526Z,13.80
2022-07-25T02:31:11.336Z,14.20
2022-07-25T02:33:39.719Z,13.87
2022-07-25T02:36:09.000Z,16.30
2022-07-25T02:38:37.294Z,14.53
2022-07-25T02:41:06.625Z,13.90
2022-07-25T02:43:34.889Z,16.07
2022-07-25T02:46:03.143Z,15.83
2022-07-25T02:48:32.817Z,14.20
2022-07-25T02:51:01.101Z,14.70
2022-07-25T02:53:54.791Z,14.73
2022-07-25T02:56:17.557Z,15.00
2022-07-25T02:58:49.614Z,15.63
2022-07-25T03:01:18.039Z,14.53
2022-07-25T03:03:47.779Z,15.60
2022-07-25T03:06:16.224Z,14.77
2022-07-25T03:08:44.409Z,15.03
2022-07-25T03:11:12.665Z,15.77
2022-07-25T03:13:41.002Z,14.43
2022-07-25T03:16:10.444Z,15.80
2022-07-25T03:18:38.903Z,14.63
2022-07-25T03:21:08.687Z,14.90
2022-07-25T03:23:37.006Z,14.67
2022-07-25T03:26:05.268Z,14.77
2022-07-25T03:28:33.487Z,14.03
2022-07-25T03:31:01.905Z,15.37
2022-07-25T03:33:30.080Z,14.07
2022-07-25T03:35:58.313Z,15.80
2022-07-25T03:38:28.030Z,15.33
2022-07-25T03:40:56.267Z,15.73
2022-07-25T03:43:24.533Z,15.20
2022-07-25T03:45:52.941Z,15.77
2022-07-25T03:48:21.186Z,15.20
2022-07-25T03:50:49.589Z,15.50
2022-07-25T03:53:17.748Z,14.90
2022-07-25T03:55:47.381Z,15.23
2022-07-25T03:58:15.561Z,15.67
2022-07-25T04:00:43.909Z,15.03
2022-07-25T04:03:12.210Z,15.80
2022-07-25T04:05:43.063Z,15.97
2022-07-25T04:08:15.256Z,15.97
2022-07-25T04:10:43.469Z,15.30
2022-07-25T04:13:13.009Z,15.20
2022-07-25T04:15:41.411Z,15.37
2022-07-25T04:18:12.210Z,15.40
2022-07-25T04:20:45.144Z,14.87
2022-07-25T04:23:13.294Z,15.10
2022-07-25T04:25:41.613Z,14.87
2022-07-25T04:28:09.783Z,14.23
2022-07-25T04:30:39.477Z,14.97
2022-07-25T04:33:07.700Z,14.07
2022-07-25T04:35:36.539Z,14.83
2022-07-25T04:38:07.644Z,14.07
2022-07-25T04:40:40.264Z,14.27
2022-07-25T04:43:09.616Z,14.13
2022-07-25T04:45:39.489Z,13.97
2022-07-25T04:48:08.292Z,13.40
2022-07-25T04:50:36.529Z,13.20
2022-07-25T04:53:04.872Z,14.30
2022-07-25T04:55:33.560Z,13.47
2022-07-25T04:58:01.765Z,14.10
2022-07-25T05:00:29.951Z,14.17
2022-07-25T05:02:59.768Z,14.10
2022-07-25T05:05:28.295Z,14.47
2022-07-25T05:07:58.103Z,14.17
2022-07-25T05:10:26.661Z,14.07
2022-07-25T05:12:55.009Z,14.13
2022-07-25T05:15:23.451Z,13.23
2022-07-25T05:17:51.871Z,13.87
2022-07-25T05:20:21.531Z,13.93
2022-07-25T05:22:49.782Z,13.60
2022-07-25T05:25:17.991Z,13.20
2022-07-25T05:27:46.444Z,13.30
2022-07-25T05:30:15.663Z,14.93
2022-07-25T05:32:43.909Z,12.40
2022-07-25T05:35:12.135Z,12.50
2022-07-25T05:37:42.164Z,13.47
2022-07-25T05:40:10.728Z,12.70
2022-07-25T05:42:39.026Z,13.70
2022-07-25T05:45:08.390Z,13.60
2022-07-25T05:47:36.882Z,12.53
2022-07-25T05:50:05.637Z,13.10
2022-07-25T05:52:33.911Z,12.27
2022-07-25T05:55:03.487Z,13.30
2022-07-25T05:57:31.663Z,12.93
2022-07-25T05:59:59.925Z,13.57
2022-07-25T06:02:28.176Z,12.47
2022-07-25T06:04:56.503Z,13.57
2022-07-25T06:07:24.689Z,13.40
2022-07-25T06:09:52.904Z,14.27
2022-07-25T06:12:24.309Z,12.20
2022-07-25T06:14:52.906Z,13.00
2022-07-25T06:17:21.832Z,12.17
2022-07-25T06:19:50.026Z,12.80
2022-07-25T06:22:19.670Z,11.73
2022-07-25T06:24:47.854Z,13.27
2022-07-25T06:27:20.569Z,12.30
2022-07-25T06:29:51.314Z,12.20
2022-07-25T06:32:19.616Z,11.63
2022-07-25T06:34:47.848Z,11.80
2022-07-25T06:37:16.162Z,11.10
2022-07-25T06:39:46.117Z,11.07
2022-07-25T06:42:14.482Z,11.40
2022-07-25T06:44:43.292Z,11.67
2022-07-25T06:47:13.752Z,11.90
2022-07-25T06:49:42.927Z,11.83
2022-07-25T06:52:11.223Z,11.30
2022-07-25T06:54:39.603Z,12.90
2022-07-25T06:57:09.060Z,10.67
2022-07-25T06:59:37.311Z,11.43
2022-07-25T07:02:05.563Z,11.03
2022-07-25T07:04:35.160Z,11.43
2022-07-25T07:07:03.295Z,12.77
2022-07-25T07:09:31.958Z,12.33
2022-07-25T07:12:00.262Z,11.40
2022-07-25T07:14:28.879Z,11.80
2022-07-25T07:16:57.201Z,11.80
2022-07-25T07:19:25.904Z,12.60
2022-07-25T07:21:55.574Z,11.57
2022-07-25T07:24:24.583Z,10.73
2022-07-25T07:26:53.689Z,12.10
2022-07-25T07:29:22.338Z,11.30
2022-07-25T07:31:50.630Z,10.57
2022-07-25T07:34:19.011Z,11.60
2022-07-25T07:36:47.321Z,12.23
2022-07-25T07:39:17.843Z,12.03
2022-07-25T07:41:46.150Z,11.17
2022-07-25T07:44:14.551Z,11.00
2022-07-25T07:46:42.915Z,11.40
2022-07-25T07:49:11.551Z,11.60
2022-07-25T07:51:40.170Z,11.90
2022-07-25T07:54:25.677Z,11.17
2022-07-25T07:56:55.332Z,11.80
2022-07-25T07:59:23.597Z,11.47
2022-07-25T08:01:51.889Z,11.00
2022-07-25T08:04:20.245Z,11.60
2022-07-25T08:06:48.457Z,11.10
2022-07-25T08:09:16.660Z,11.27
2022-07-25T08:11:44.940Z,10.13
2022-07-25T08:14:14.570Z,10.93
2022-07-25T08:16:42.941Z,10.83
2022-07-25T08:19:11.276Z,11.60
2022-07-25T08:21:39.694Z,10.80
2022-07-25T08:24:08.357Z,11.63
2022-07-25T08:26:37.303Z,11.20
2022-07-25T08:31:53.558Z,11.27
2022-07-25T08:34:22.700Z,10.57
2022-07-25T08:36:50.953Z,10.30
2022-07-25T08:39:19.268Z,10.90
2022-07-25T08:41:47.581Z,10.83
2022-07-25T08:44:17.931Z,10.87
2022-07-25T08:46:46.974Z,11.17
2022-07-25T08:49:16.623Z,10.80
2022-07-25T08:51:45.032Z,9.73
2022-07-25T08:54:14.140Z,10.20
2022-07-25T08:56:42.369Z,10.47
2022-07-25T08:59:10.963Z,10.23
2022-07-25T09:01:41.638Z,10.37
2022-07-25T09:04:11.068Z,10.20
2022-07-25T09:06:50.356Z,10.13
2022-07-25T09:09:18.832Z,10.10
2022-07-25T09:11:47.056Z,10.80
2022-07-25T09:14:15.600Z,10.20
2022-07-25T09:16:45.598Z,10.53
2022-07-25T09:19:15.228Z,10.60
2022-07-25T09:21:46.124Z,10.23
2022-07-25T09:24:17.061Z,10.83
2022-07-25T09:26:47.268Z,9.97
2022-07-25T09:29:20.657Z,9.77
2022-07-25T09:31:49.112Z,10.57
2022-07-25T09:34:41.833Z,9.60
2022-07-25T09:37:13.803Z,9.43
2022-07-25T09:39:46.863Z,9.50
2022-07-25T09:42:22.989Z,9.00
2022-07-25T09:45:03.022Z,9.43
2022-07-25T09:47:32.492Z,9.93
2022-07-25T09:50:00.757Z,10.40
2022-07-25T09:52:30.541Z,10.40
2022-07-25T09:54:58.805Z,9.67
2022-07-25T09:57:27.051Z,9.20
2022-07-25T09:59:56.158Z,9.73
2022-07-25T10:02:34.077Z,8.90
2022-07-25T10:05:11.169Z,9.70
2022-07-25T10:07:41.448Z,8.97
2022-07-25T10:10:09.961Z,9.97
2022-07-25T10:12:38.316Z,9.50
2022-07-25T10:15:09.555Z,9.27
2022-07-25T10:17:39.213Z,9.17
2022-07-25T10:20:10.181Z,9.00
2022-07-25T10:22:55.893Z,9.80
2022-07-25T10:25:25.050Z,9.87
2022-07-25T10:28:00.119Z,9.07
2022-07-25T10:30:30.328Z,10.33
2022-07-25T10:32:59.611Z,8.70
2022-07-25T10:35:28.253Z,9.47
2022-07-25T10:37:59.043Z,9.77
2022-07-25T10:40:34.819Z,9.70
2022-07-25T10:43:04.315Z,9.30
2022-07-25T10:45:40.513Z,9.50
2022-07-25T10:48:13.106Z,10.10
2022-07-25T10:50:55.932Z,10.53
2022-07-25T10:53:39.786Z,9.93
2022-07-25T10:56:10.005Z,9.37
2022-07-25T10:58:50.231Z,9.27
2022-07-25T11:01:25.998Z,10.60
2022-07-25T11:03:56.163Z,9.97
2022-07-25T11:06:33.195Z,10.27
2022-07-25T11:09:03.576Z,9.70
2022-07-25T11:11:36.638Z,9.60
2022-07-25T11:14:05.504Z,10.20
2022-07-25T11:16:34.234Z,9.33
2022-07-25T11:19:02.432Z,10.63
2022-07-25T11:21:30.704Z,10.40
2022-07-25T11:23:58.940Z,9.83
2022-07-25T11:26:28.759Z,10.30
2022-07-25T11:28:56.942Z,10.40
2022-07-25T11:31:25.158Z,9.63
2022-07-25T11:33:53.465Z,10.20
2022-07-25T11:36:21.782Z,9.67
2022-07-25T11:38:50.467Z,9.53
2022-07-25T11:41:30.693Z,10.30
2022-07-25T11:43:58.873Z,10.30
2022-07-25T11:46:27.286Z,10.00
2022-07-25T11:49:06.114Z,11.27
2022-07-25T11:51:38.290Z,10.73
2022-07-25T11:54:11.344Z,10.80
2022-07-25T11:56:43.271Z,10.53
2022-07-25T11:59:12.386Z,10.03
2022-07-25T12:01:42.823Z,10.50
2022-07-25T12:04:12.707Z,9.80
2022-07-25T12:06:41.426Z,10.00
2022-07-25T12:09:19.059Z,9.80
2022-07-25T12:11:49.908Z,10.40
2022-07-25T12:14:18.148Z,10.13
2022-07-25T12:16:46.397Z,10.97
2022-07-25T12:19:22.428Z,10.60
2022-07-25T12:21:50.655Z,10.30
2022-07-25T12:24:18.870Z,9.70
2022-07-25T12:26:48.539Z,10.30
2022-07-25T12:29:16.720Z,10.47
2022-07-25T12:31:44.960Z,9.87
2022-07-25T12:34:13.243Z,11.07
2022-07-25T12:36:45.154Z,11.30
2022-07-25T12:39:13.592Z,10.83
2022-07-25T12:41:42.756Z,11.20
2022-07-25T12:44:12.824Z,10.87
2022-07-25T12:46:48.769Z,11.40
2022-07-25T12:49:17.981Z,11.27
2022-07-25T12:51:46.358Z,12.00
2022-07-25T12:54:21.745Z,11.73
2022-07-25T12:56:50.386Z,11.20
2022-07-25T12:59:19.965Z,11.10
2022-07-25T13:01:48.282Z,11.40
2022-07-25T13:04:16.545Z,10.43
2022-07-25T13:06:44.793Z,11.63
2022-07-25T13:09:13.148Z,10.70
2022-07-25T13:11:42.451Z,10.87
2022-07-25T13:14:10.629Z,11.40
2022-07-25T13:16:40.282Z,11.53
2022-07-25T13:19:09.019Z,11.70
2022-07-25T13:21:37.823Z,11.67
2022-07-25T13:24:07.670Z,10.93
2022-07-25T13:26:36.067Z,11.80
2022-07-25T13:29:08.618Z,11.80
2022-07-25T13:31:41.278Z,11.20
2022-07-25T13:34:10.031Z,11.50
2022-07-25T13:36:39.556Z,11.03
2022-07-25T13:39:08.219Z,10.57
2022-07-25T13:41:37.047Z,10.37
2022-07-25T13:44:05.563Z,11.70
2022-07-25T13:46:34.131Z,11.00
2022-07-25T13:49:04.183Z,11.40
2022-07-25T13:51:32.703Z,11.73
2022-07-25T13:54:00.881Z,11.20
2022-07-25T13:56:29.116Z,10.70
2022-07-25T13:58:57.293Z,11.23
2022-07-25T14:01:27.543Z,11.57
2022-07-25T14:03:55.899Z,12.13
2022-07-25T14:06:25.536Z,10.53
2022-07-25T14:08:53.714Z,11.20
2022-07-25T14:11:23.942Z,11.00
2022-07-25T14:13:55.844Z,11.50
2022-07-25T14:16:24.087Z,12.17
2022-07-25T14:18:52.295Z,10.77
2022-07-25T14:21:20.509Z,10.60
2022-07-25T14:23:50.079Z,11.63
2022-07-25T14:26:18.304Z,11.23
2022-07-25T14:28:46.606Z,11.40
2022-07-25T14:31:14.986Z,11.97
2022-07-25T14:33:43.231Z,11.67
2022-07-25T14:36:11.780Z,10.70
2022-07-25T14:38:40.104Z,11.40
2022-07-25T14:41:13.050Z,10.83
2022-07-25T14:43:41.649Z,11.50
2022-07-25T14:46:10.032Z,11.13
2022-07-25T14:48:38.801Z,11.40
2022-07-25T14:51:07.812Z,11.20
2022-07-25T14:53:36.406Z,10.50
2022-07-25T14:56:06.701Z,12.00
2022-07-25T14:58:38.292Z,11.20
2022-07-25T15:01:07.091Z,11.17
2022-07-25T15:03:35.326Z,11.70
2022-07-25T15:06:03.615Z,11.60
2022-07-25T15:08:31.852Z,10.30
2022-07-25T15:11:00.041Z,10.90
2022-07-25T15:13:31.582Z,11.23
2022-07-25T15:16:02.257Z,11.07
2022-07-25T15:18:30.699Z,11.70
2022-07-25T15:20:58.983Z,10.57
2022-07-25T15:23:30.413Z,11.40
2022-07-25T15:26:02.441Z,10.37
2022-07-25T15:28:31.789Z,10.77
2022-07-25T15:31:01.495Z,11.07
2022-07-25T15:33:30.036Z,10.70
2022-07-25T15:35:58.287Z,11.93
2022-07-25T15:38:26.692Z,10.83
2022-07-25T15:40:54.899Z,11.10
2022-07-25T15:43:23.075Z,11.67
2022-07-25T15:45:51.519Z,11.13
2022-07-25T15:48:21.512Z,10.70
2022-07-25T15:50:51.723Z,10.10
2022-07-25T15:53:20.232Z,9.87
2022-07-25T15:55:48.573Z,10.80
2022-07-25T15:58:16.899Z,9.83
2022-07-25T16:00:45.402Z,9.77
2022-07-25T16:03:14.400Z,9.50
2022-07-25T16:05:44.834Z,10.10
2022-07-25T16:08:13.111Z,8.97
2022-07-25T16:10:41.756Z,9.80
2022-07-25T16:13:10.033Z,8.80
2022-07-25T16:15:38.394Z,9.40
2022-07-25T16:18:07.009Z,8.93
2022-07-25T16:20:35.486Z,9.83
2022-07-25T16:23:05.159Z,8.90
2022-07-25T16:25:33.823Z,9.37
2022-07-25T16:28:02.025Z,9.47
2022-07-25T16:30:30.264Z,8.60
2022-07-25T16:32:58.480Z,9.13
2022-07-25T16:35:26.734Z,8.70
2022-07-25T16:37:54.956Z,9.20
2022-07-25T16:40:27.347Z,9.37
2022-07-25T16:42:59.709Z,8.80
2022-07-25T16:45:28.819Z,9.63
2022-07-25T16:47:57.113Z,8.53
2022-07-25T16:50:25.347Z,9.40
2022-07-25T16:52:54.346Z,9.67
2022-07-25T16:55:24.050Z,8.43
2022-07-25T16:57:52.270Z,8.97
2022-07-25T17:00:21.003Z,10.27
2022-07-25T17:02:49.755Z,8.53
2022-07-25T17:05:18.105Z,8.83
2022-07-25T17:07:47.409Z,9.60
2022-07-25T17:10:15.602Z,8.90
2022-07-25T17:12:45.297Z,7.67
2022-07-25T17:15:13.696Z,8.50
2022-07-25T17:17:42.146Z,8.77
2022-07-25T17:20:11.293Z,8.90
2022-07-25T17:22:39.604Z,8.20
2022-07-25T17:25:08.598Z,8.87
2022-07-25T17:27:37.342Z,9.40
2022-07-25T17:30:08.301Z,9.17
2022-07-25T17:32:36.525Z,8.33
2022-07-25T17:35:05.363Z,9.00
2022-07-25T17:37:33.541Z,9.43
2022-07-25T17:40:01.840Z,9.50
2022-07-25T17:42:30.063Z,8.33
2022-07-25T17:45:01.128Z,9.43
2022-07-25T17:47:30.975Z,9.17
2022-07-25T17:49:59.234Z,9.50
2022-07-25T17:52:27.597Z,8.57
2022-07-25T17:54:55.937Z,9.63
2022-07-25T17:57:24.248Z,9.23
2022-07-25T17:59:52.610Z,9.80
2022-07-25T18:02:20.924Z,9.70
2022-07-25T18:04:50.640Z,8.90
2022-07-25T18:07:20.707Z,9.70
2022-07-25T18:09:48.878Z,9.00
2022-07-25T18:12:17.188Z,9.27
2022-07-25T18:14:45.468Z,9.70
2022-07-25T18:17:13.900Z,9.80
2022-07-25T18:19:42.143Z,9.07
2022-07-25T18:22:11.736Z,9.57
2022-07-25T18:24:39.942Z,10.07
2022-07-25T18:27:08.159Z,8.93
2022-07-25T18:29:38.370Z,9.67
2022-07-25T18:32:07.670Z,9.53
2022-07-25T18:34:36.790Z,10.30
2022-07-25T18:37:05.107Z,9.80
2022-07-25T18:39:35.433Z,10.10
2022-07-25T18:42:03.803Z,9.73
2022-07-25T18:44:32.825Z,17.20
2022-07-25T18:47:02.647Z,19.53
2022-07-25T18:49:30.893Z,17.70
2022-07-25T18:52:00.703Z,11.63
2022-07-25T18:54:28.975Z,10.00
2022-07-25T18:56:58.636Z,10.17
2022-07-25T18:59:26.959Z,11.10
2022-07-25T19:01:56.231Z,11.00
2022-07-25T19:04:24.522Z,10.77
2022-07-25T19:06:52.958Z,9.67
2022-07-25T19:09:21.239Z,11.77
2022-07-25T19:11:49.749Z,10.57
2022-07-25T19:14:19.685Z,10.33
2022-07-25T19:16:47.994Z,11.50
2022-07-25T19:19:16.231Z,10.63
2022-07-25T19:21:45.952Z,11.33
2022-07-25T19:24:14.311Z,11.00
2022-07-25T19:26:42.900Z,10.23
2022-07-25T19:29:16.847Z,10.80
2022-07-25T19:31:46.544Z,10.50
2022-07-25T19:34:14.924Z,11.37
2022-07-25T19:36:45.998Z,11.07
2022-07-25T19:39:14.531Z,11.20
2022-07-25T19:41:47.002Z,10.70
2022-07-25T19:44:15.779Z,11.63
2022-07-25T19:46:44.974Z,12.20
2022-07-25T19:49:15.252Z,10.70
2022-07-25T19:51:43.614Z,10.53
2022-07-25T19:54:12.166Z,11.10
2022-07-25T19:56:40.464Z,11.00
2022-07-25T19:59:08.818Z,11.00
2022-07-25T20:01:39.401Z,11.67
2022-07-25T20:04:09.183Z,11.30
2022-07-25T20:06:39.138Z,11.13
2022-07-25T20:09:07.738Z,10.40
2022-07-25T20:11:37.134Z,10.47
2022-07-25T20:14:06.021Z,10.90
2022-07-25T20:16:36.035Z,11.00
2022-07-25T20:19:05.555Z,12.00
2022-07-25T20:21:34.466Z,10.30
2022-07-25T20:24:04.421Z,10.60
2022-07-25T20:26:32.762Z,11.90
2022-07-25T20:29:01.017Z,11.40
2022-07-25T20:31:32.161Z,11.77
2022-07-25T20:34:00.570Z,11.60
2022-07-25T20:36:28.865Z,12.30
2022-07-25T20:38:57.306Z,11.10
2022-07-25T20:41:28.256Z,11.50
2022-07-25T20:43:57.515Z,11.57
2022-07-25T20:46:26.213Z,11.33
2022-07-25T20:48:54.706Z,11.60
2022-07-25T20:51:23.036Z,11.10
2022-07-25T20:53:51.672Z,12.07
2022-07-25T20:56:22.117Z,11.80
2022-07-25T20:58:52.101Z,11.57
2022-07-25T21:01:20.352Z,12.10
2022-07-25T21:03:48.742Z,13.03
2022-07-25T21:06:17.072Z,11.00
2022-07-25T21:08:45.352Z,11.73
2022-07-25T21:11:13.708Z,11.47
2022-07-25T21:13:42.002Z,11.93
2022-07-25T21:16:11.639Z,11.60
2022-07-25T21:18:40.138Z,11.37
2022-07-25T21:21:12.129Z,10.77
2022-07-25T21:23:40.698Z,11.80
2022-07-25T21:26:09.110Z,11.43
2022-07-25T21:28:37.342Z,11.60
2022-07-25T21:31:05.610Z,11.80
2022-07-25T21:33:35.390Z,11.63
2022-07-25T21:36:03.787Z,11.60
2022-07-25T21:38:34.732Z,12.07
2022-07-25T21:41:03.557Z,10.80
2022-07-25T21:43:31.820Z,10.73
2022-07-25T21:46:00.434Z,11.50
2022-07-25T21:48:42.990Z,11.00
2022-07-25T21:51:19.296Z,12.10
2022-07-25T21:53:51.879Z,10.90
2022-07-25T21:56:20.456Z,10.70
2022-07-25T21:58:49.046Z,11.63
2022-07-25T22:01:17.470Z,11.30
2022-07-25T22:03:45.914Z,12.50
2022-07-25T22:06:15.654Z,12.40
2022-07-25T22:08:43.975Z,12.33
2022-07-25T22:11:20.889Z,12.63
2022-07-25T22:14:00.843Z,12.50
2022-07-25T22:16:29.512Z,11.87
2022-07-25T22:18:58.354Z,13.97
2022-07-25T22:21:28.848Z,12.60
2022-07-25T22:23:57.049Z,12.10
2022-07-25T22:26:25.368Z,12.20
2022-07-25T22:28:53.691Z,11.90
2022-07-25T22:31:22.101Z,12.47
2022-07-25T22:33:50.482Z,12.20
2022-07-25T22:36:18.847Z,11.83
2022-07-25T22:38:50.051Z,12.27
2022-07-25T22:41:18.277Z,12.77
2022-07-25T22:43:58.418Z,11.40
2022-07-25T22:46:28.101Z,12.13
2022-07-25T22:48:56.677Z,13.40
2022-07-25T22:51:25.113Z,13.80
2022-07-25T22:53:55.158Z,12.53
2022-07-25T22:56:23.725Z,11.90
2022-07-25T22:58:52.012Z,12.20
2022-07-25T23:01:21.089Z,12.90
2022-07-25T23:03:50.368Z,13.00
2022-07-25T23:06:19.573Z,13.17
2022-07-25T23:08:48.267Z,13.13
2022-07-25T23:11:17.898Z,12.30
2022-07-25T23:13:46.248Z,13.20
2022-07-25T23:16:14.541Z,14.00
2022-07-25T23:18:42.739Z,14.07
2022-07-25T23:21:11.485Z,13.00
2022-07-25T23:23:39.627Z,13.17
2022-07-25T23:26:07.812Z,14.00
2022-07-25T23:28:37.354Z,13.27
2022-07-25T23:31:05.888Z,13.60
2022-07-25T23:33:34.253Z,13.50
2022-07-25T23:36:02.815Z,6.03
2022-07-25T23:38:31.193Z,14.50
2022-07-25T23:40:59.374Z,14.63
2022-07-25T23:43:55.559Z,13.60
2022-07-25T23:46:18.174Z,13.30
2022-07-25T23:48:49.281Z,15.23
2022-07-25T23:51:17.585Z,15.10
2022-07-25T23:53:45.941Z,15.27
2022-07-25T23:56:17.367Z,13.40
2022-07-25T23:58:50.205Z,14.10
